createdAt,value
2018-06-16T00:00:48.843Z,100161.88
2018-06-16T00:03:17.011Z,100163.77
2018-06-16T00:05:45.181Z,100160.25
2018-06-16T00:08:13.343Z,100159.17
2018-06-16T00:10:41.502Z,100160.80
2018-06-16T00:13:09.666Z,100165.94
2018-06-16T00:15:37.834Z,100165.68
2018-06-16T00:18:06.011Z,100162.40
2018-06-16T00:20:34.181Z,100169.15
2018-06-16T00:23:02.349Z,100167.53
2018-06-16T00:25:30.526Z,100174.80
2018-06-16T00:27:58.696Z,100170.77
2018-06-16T00:30:26.865Z,100169.61
2018-06-16T00:32:55.029Z,100161.25
2018-06-16T00:35:23.190Z,100168.51
2018-06-16T00:37:51.351Z,100158.77
2018-06-16T00:40:19.524Z,100158.47
2018-06-16T00:42:47.698Z,100158.71
2018-06-16T00:45:15.967Z,100159.77
2018-06-16T00:47:44.134Z,100162.97
2018-06-16T00:50:12.293Z,100162.16
2018-06-16T00:52:40.482Z,100161.86
2018-06-16T00:55:09.014Z,100164.31
2018-06-16T00:57:48.250Z,100159.16
2018-06-16T01:00:17.550Z,100154.31
2018-06-16T01:02:45.919Z,100151.87
2018-06-16T01:05:14.106Z,100156.99
2018-06-16T01:07:42.286Z,100158.87
2018-06-16T01:10:11.371Z,100161.30
2018-06-16T01:12:39.846Z,100157.00
2018-06-16T01:15:08.045Z,100150.75
2018-06-16T01:17:36.203Z,100155.61
2018-06-16T01:20:05.001Z,100154.77
2018-06-16T01:22:33.258Z,100154.47
2018-06-16T01:25:01.430Z,100157.39
2018-06-16T01:27:30.015Z,100155.73
2018-06-16T01:29:58.507Z,100158.41
2018-06-16T01:32:26.774Z,100163.48
2018-06-16T01:34:54.972Z,100157.23
2018-06-16T01:37:23.155Z,100149.91
2018-06-16T01:39:51.403Z,100149.30
2018-06-16T01:42:19.578Z,100144.44
2018-06-16T01:44:47.769Z,100146.55
2018-06-16T01:47:15.930Z,100149.77
2018-06-16T01:49:44.106Z,100148.91
2018-06-16T01:52:12.278Z,100155.89
2018-06-16T01:54:40.460Z,100152.37
2018-06-16T01:57:08.631Z,100151.55
2018-06-16T01:59:36.797Z,100156.14
2018-06-16T02:02:05.326Z,100151.55
2018-06-16T02:04:33.510Z,100152.06
2018-06-16T02:07:01.680Z,100147.75
2018-06-16T02:09:29.854Z,100149.89
2018-06-16T02:11:58.036Z,100153.41
2018-06-16T02:14:26.204Z,100148.81
2018-06-16T02:16:54.422Z,100149.89
2018-06-16T02:19:22.599Z,100150.66
2018-06-16T02:21:50.770Z,100150.89
2018-06-16T02:24:18.951Z,100159.22
2018-06-16T02:26:47.130Z,100150.66
2018-06-16T02:29:15.314Z,100157.11
2018-06-16T02:31:43.482Z,100155.77
2018-06-16T02:34:11.646Z,100152.77
2018-06-16T02:36:39.823Z,100151.72
2018-06-16T02:39:09.754Z,100151.75
2018-06-16T02:41:37.964Z,100149.03
2018-06-16T02:44:06.150Z,100144.44
2018-06-16T02:46:34.338Z,100151.72
2018-06-16T02:49:02.520Z,100146.85
2018-06-16T02:51:30.700Z,100146.61
2018-06-16T02:53:58.862Z,100145.50
2018-06-16T02:56:27.154Z,100148.44
2018-06-16T02:58:55.330Z,100155.70
2018-06-16T03:01:23.498Z,100154.59
2018-06-16T03:03:51.711Z,100158.87
2018-06-16T03:06:19.875Z,100151.03
2018-06-16T03:08:48.053Z,100162.05
2018-06-16T03:11:16.216Z,100155.03
2018-06-16T03:13:44.377Z,100161.49
2018-06-16T03:16:12.547Z,100158.24
2018-06-16T03:18:40.702Z,100156.63
2018-06-16T03:21:08.862Z,100157.92
2018-06-16T03:23:37.147Z,100150.13
2018-06-16T03:26:05.270Z,100159.23
2018-06-16T03:28:33.470Z,100159.00
2018-06-16T03:31:01.655Z,100155.52
2018-06-16T03:33:29.810Z,100156.07
2018-06-16T03:35:57.974Z,100152.82
2018-06-16T03:38:26.151Z,100157.14
2018-06-16T03:40:54.506Z,100150.99
2018-06-16T03:43:22.685Z,100155.31
2018-06-16T03:45:50.853Z,100159.94
2018-06-16T03:48:19.022Z,100157.84
2018-06-16T03:50:47.186Z,100155.11
2018-06-16T03:53:15.346Z,100153.52
2018-06-16T03:55:43.506Z,100154.94
2018-06-16T03:58:11.674Z,100158.19
2018-06-16T04:00:39.826Z,100156.59
2018-06-16T04:03:08.031Z,100153.07
2018-06-16T04:05:36.203Z,100153.63
2018-06-16T04:08:04.430Z,100153.66
2018-06-16T04:10:32.610Z,100148.30
2018-06-16T04:13:00.762Z,100154.00
2018-06-16T04:15:28.926Z,100150.50
2018-06-16T04:17:57.099Z,100148.64
2018-06-16T04:20:25.262Z,100148.15
2018-06-16T04:22:53.626Z,100148.97
2018-06-16T04:25:21.810Z,100156.27
2018-06-16T04:27:49.977Z,100157.92
2018-06-16T04:30:18.146Z,100155.22
2018-06-16T04:32:46.319Z,100155.28
2018-06-16T04:35:14.473Z,100152.64
2018-06-16T04:37:42.646Z,100154.56
2018-06-16T04:40:10.822Z,100153.21
2018-06-16T04:42:39.034Z,100152.99
2018-06-16T04:45:07.227Z,100155.73
2018-06-16T04:47:35.620Z,100161.19
2018-06-16T04:50:03.854Z,100163.06
2018-06-16T04:52:32.086Z,100161.78
2018-06-16T04:55:00.277Z,100166.13
2018-06-16T04:57:28.446Z,100163.13
2018-06-16T04:59:56.602Z,100159.67
2018-06-16T05:02:24.805Z,100159.70
2018-06-16T05:04:52.994Z,100156.73
2018-06-16T05:07:21.179Z,100156.23
2018-06-16T05:09:49.427Z,100156.48
2018-06-16T05:12:17.606Z,100158.12
2018-06-16T05:14:45.783Z,100156.76
2018-06-16T05:17:13.943Z,100155.95
2018-06-16T05:19:42.118Z,100151.38
2018-06-16T05:22:10.273Z,100155.13
2018-06-16T05:24:38.423Z,100150.33
2018-06-16T05:27:06.602Z,100151.12
2018-06-16T05:29:34.754Z,100145.73
2018-06-16T05:32:02.914Z,100141.19
2018-06-16T05:34:31.084Z,100147.12
2018-06-16T05:36:59.263Z,100150.70
2018-06-16T05:39:27.427Z,100152.60
2018-06-16T05:41:55.578Z,100151.05
2018-06-16T05:44:23.770Z,100159.97
2018-06-16T05:46:51.969Z,100172.96
2018-06-16T05:49:20.113Z,100174.05
2018-06-16T05:51:48.270Z,100169.21
2018-06-16T05:54:16.436Z,100178.65
2018-06-16T05:56:44.606Z,100175.93
2018-06-16T05:59:12.778Z,100178.12
2018-06-16T06:01:40.939Z,100184.09
2018-06-16T06:04:09.091Z,100183.84
2018-06-16T06:06:37.254Z,100183.05
2018-06-16T06:09:07.333Z,100179.82
2018-06-16T06:11:35.490Z,100183.33
2018-06-16T06:14:03.695Z,100187.39
2018-06-16T06:16:32.266Z,100190.96
2018-06-16T06:19:00.421Z,100181.77
2018-06-16T06:21:28.587Z,100181.20
2018-06-16T06:23:56.748Z,100185.54
2018-06-16T06:26:24.902Z,100195.02
2018-06-16T06:28:53.054Z,100192.02
2018-06-16T06:31:21.215Z,100192.02
2018-06-16T06:33:49.375Z,100199.87
2018-06-16T06:36:17.630Z,100206.89
2018-06-16T06:38:45.782Z,100205.81
2018-06-16T06:41:13.950Z,100204.74
2018-06-16T06:43:42.138Z,100204.20
2018-06-16T06:46:10.326Z,100203.65
2018-06-16T06:48:38.480Z,100202.80
2018-06-16T06:51:06.656Z,100203.06
2018-06-16T06:53:34.805Z,100205.73
2018-06-16T06:56:03.062Z,100205.47
2018-06-16T06:58:31.219Z,100204.66
2018-06-16T07:00:59.374Z,100209.22
2018-06-16T07:03:27.539Z,100204.84
2018-06-16T07:05:55.835Z,100214.29
2018-06-16T07:08:24.307Z,100209.66
2018-06-16T07:10:52.516Z,100204.20
2018-06-16T07:13:20.618Z,100204.13
2018-06-16T07:15:48.770Z,100205.48
2018-06-16T07:18:16.962Z,100202.16
2018-06-16T07:20:45.110Z,100201.93
2018-06-16T07:23:13.276Z,100207.84
2018-06-16T07:25:41.459Z,100205.63
2018-06-16T07:28:09.791Z,100199.84
2018-06-16T07:30:37.958Z,100197.34
2018-06-16T07:33:06.195Z,100202.41
2018-06-16T07:35:34.367Z,100192.83
2018-06-16T07:38:02.546Z,100192.50
2018-06-16T07:40:30.706Z,100194.00
2018-06-16T07:42:58.866Z,100192.13
2018-06-16T07:45:27.027Z,100194.28
2018-06-16T07:47:55.227Z,100198.03
2018-06-16T07:50:23.390Z,100191.80
2018-06-16T07:52:51.553Z,100192.53
2018-06-16T07:55:19.714Z,100190.82
2018-06-16T07:57:47.988Z,100194.46
2018-06-16T08:00:16.262Z,100189.02
2018-06-16T08:02:44.502Z,100185.84
2018-06-16T08:05:12.615Z,100189.05
2018-06-16T08:07:40.791Z,100187.31
2018-06-16T08:10:09.095Z,100189.14
2018-06-16T08:12:37.254Z,100186.14
2018-06-16T08:15:05.425Z,100184.92
2018-06-16T08:17:33.598Z,100191.77
2018-06-16T08:20:01.775Z,100191.04
2018-06-16T08:22:29.936Z,100188.31
2018-06-16T08:24:58.094Z,100198.22
2018-06-16T08:27:26.263Z,100194.41
2018-06-16T08:29:54.422Z,100193.58
2018-06-16T08:32:22.611Z,100198.64
2018-06-16T08:34:50.827Z,100197.50
2018-06-16T08:37:18.982Z,100193.44
2018-06-16T08:39:47.156Z,100203.70
2018-06-16T08:42:15.326Z,100203.84
2018-06-16T08:44:43.551Z,100200.61
2018-06-16T08:47:11.730Z,100197.06
2018-06-16T08:49:39.981Z,100195.16
2018-06-16T08:52:08.154Z,100197.75
2018-06-16T08:54:36.317Z,100188.97
2018-06-16T08:57:04.545Z,100196.97
2018-06-16T08:59:32.841Z,100190.58
2018-06-16T09:02:01.091Z,100189.55
2018-06-16T09:04:29.263Z,100194.84
2018-06-16T09:06:57.430Z,100191.83
2018-06-16T09:09:25.615Z,100193.52
2018-06-16T09:11:53.820Z,100201.62
2018-06-16T09:14:21.983Z,100198.90
2018-06-16T09:16:50.202Z,100194.06
2018-06-16T09:19:18.362Z,100200.80
2018-06-16T09:21:46.559Z,100193.52
2018-06-16T09:24:14.714Z,100193.34
2018-06-16T09:26:42.930Z,100190.61
2018-06-16T09:29:11.094Z,100192.67
2018-06-16T09:31:39.269Z,100190.56
2018-06-16T09:34:07.514Z,100195.34
2018-06-16T09:36:35.682Z,100195.24
2018-06-16T09:39:06.151Z,100199.31
2018-06-16T09:41:34.326Z,100189.33
2018-06-16T09:44:02.494Z,100187.44
2018-06-16T09:46:30.690Z,100183.58
2018-06-16T09:48:58.842Z,100180.39
2018-06-16T09:51:27.011Z,100187.44
2018-06-16T09:53:55.185Z,100190.61
2018-06-16T09:56:23.358Z,100194.97
2018-06-16T09:58:51.515Z,100195.39
2018-06-16T10:01:19.670Z,100201.65
2018-06-16T10:03:47.836Z,100198.16
2018-06-16T10:06:16.009Z,100190.02
2018-06-16T10:08:44.173Z,100197.68
2018-06-16T10:11:12.330Z,100188.98
2018-06-16T10:13:40.490Z,100189.77
2018-06-16T10:16:08.648Z,100187.61
2018-06-16T10:18:36.812Z,100184.88
2018-06-16T10:21:04.971Z,100182.69
2018-06-16T10:23:33.146Z,100183.26
2018-06-16T10:26:01.317Z,100178.06
2018-06-16T10:28:29.475Z,100177.90
2018-06-16T10:30:57.658Z,100179.43
2018-06-16T10:33:25.922Z,100181.84
2018-06-16T10:35:54.090Z,100173.98
2018-06-16T10:38:22.263Z,100171.29
2018-06-16T10:40:50.422Z,100163.61
2018-06-16T10:43:18.599Z,100163.09
2018-06-16T10:45:46.774Z,100164.38
2018-06-16T10:48:15.026Z,100160.03
2018-06-16T10:50:43.194Z,100166.08
2018-06-16T10:53:13.508Z,100165.81
2018-06-16T10:55:41.667Z,100170.16
2018-06-16T10:58:09.926Z,100163.39
2018-06-16T11:00:38.098Z,100160.54
2018-06-16T11:03:06.255Z,100167.14
2018-06-16T11:05:34.414Z,100166.59
2018-06-16T11:08:02.599Z,100164.86
2018-06-16T11:10:30.758Z,100165.77
2018-06-16T11:12:58.984Z,100167.53
2018-06-16T11:15:27.365Z,100165.48
2018-06-16T11:17:55.539Z,100164.09
2018-06-16T11:20:23.770Z,100170.31
2018-06-16T11:22:51.934Z,100159.77
2018-06-16T11:25:20.103Z,100162.20
2018-06-16T11:27:48.302Z,100157.80
2018-06-16T11:30:16.474Z,100158.95
2018-06-16T11:32:44.656Z,100155.59
2018-06-16T11:35:12.807Z,100156.34
2018-06-16T11:37:40.986Z,100146.91
2018-06-16T11:40:09.178Z,100143.27
2018-06-16T11:42:37.434Z,100136.66
2018-06-16T11:45:05.907Z,100140.66
2018-06-16T11:47:34.097Z,100138.73
2018-06-16T11:50:02.246Z,100133.17
2018-06-16T11:52:30.402Z,100136.16
2018-06-16T11:54:58.606Z,100120.97
2018-06-16T11:57:26.839Z,100119.53
2018-06-16T11:59:55.107Z,100118.78
2018-06-16T12:02:23.289Z,100118.84
2018-06-16T12:04:51.462Z,100114.61
2018-06-16T12:07:19.650Z,100118.59
2018-06-16T12:09:47.811Z,100109.47
2018-06-16T12:12:15.971Z,100111.77
2018-06-16T12:14:44.121Z,100113.36
2018-06-16T12:17:12.305Z,100098.61
2018-06-16T12:19:40.519Z,100097.38
2018-06-16T12:22:08.686Z,100095.81
2018-06-16T12:24:36.872Z,100096.19
2018-06-16T12:27:05.183Z,100093.74
2018-06-16T12:29:33.353Z,100092.08
2018-06-16T12:32:01.585Z,100081.67
2018-06-16T12:34:29.726Z,100082.14
2018-06-16T12:36:57.891Z,100078.81
2018-06-16T12:39:26.054Z,100072.16
2018-06-16T12:41:54.227Z,100080.90
2018-06-16T12:44:22.387Z,100070.41
2018-06-16T12:46:50.543Z,100065.13
2018-06-16T12:49:18.711Z,100061.34
2018-06-16T12:51:46.878Z,100053.59
2018-06-16T12:54:15.039Z,100055.77
2018-06-16T12:56:43.293Z,100057.76
2018-06-16T12:59:11.573Z,100056.36
2018-06-16T13:01:39.883Z,100052.32
2018-06-16T13:04:08.071Z,100047.17
2018-06-16T13:06:36.235Z,100045.22
2018-06-16T13:09:06.214Z,100048.20
2018-06-16T13:11:34.399Z,100041.20
2018-06-16T13:14:02.892Z,100043.91
2018-06-16T13:16:31.206Z,100036.97
2018-06-16T13:18:59.867Z,100040.53
2018-06-16T13:21:28.148Z,100038.05
2018-06-16T13:23:56.306Z,100041.23
2018-06-16T13:26:24.686Z,100042.64
2018-06-16T13:28:52.879Z,100051.69
2018-06-16T13:31:21.118Z,100042.93
2018-06-16T13:33:49.635Z,100037.32
2018-06-16T13:36:17.826Z,100040.67
2018-06-16T13:38:46.058Z,100052.28
2018-06-16T13:41:14.270Z,100050.42
2018-06-16T13:43:42.447Z,100046.80
2018-06-16T13:46:10.640Z,100044.47
2018-06-16T13:48:38.802Z,100043.02
2018-06-16T13:51:07.006Z,100050.92
2018-06-16T13:53:35.222Z,100049.09
2018-06-16T13:56:03.394Z,100036.60
2018-06-16T13:58:31.686Z,100032.55
2018-06-16T14:00:59.862Z,100024.14
2018-06-16T14:03:28.110Z,100024.00
2018-06-16T14:05:56.527Z,100008.55
2018-06-16T14:08:24.888Z,100016.58
2018-06-16T14:10:53.369Z,100011.61
2018-06-16T14:13:21.587Z,100016.06
2018-06-16T14:15:49.792Z,100026.61
2018-06-16T14:18:18.386Z,100023.08
2018-06-16T14:20:46.572Z,100034.06
2018-06-16T14:23:14.841Z,100025.05
2018-06-16T14:25:43.062Z,100028.09
2018-06-16T14:28:11.207Z,100023.86
2018-06-16T14:30:39.398Z,100020.64
2018-06-16T14:33:07.634Z,100022.14
2018-06-16T14:35:35.794Z,100017.54
2018-06-16T14:38:04.002Z,100018.61
2018-06-16T14:40:32.304Z,100006.39
2018-06-16T14:43:00.486Z,100007.73
2018-06-16T14:45:28.656Z,100006.94
2018-06-16T14:47:56.834Z,100001.13
2018-06-16T14:50:25.015Z,100001.89
2018-06-16T14:52:53.198Z,100009.66
2018-06-16T14:55:21.354Z,100004.27
2018-06-16T14:57:49.537Z,100002.51
2018-06-16T15:00:17.758Z,100005.61
2018-06-16T15:02:45.945Z,100005.02
2018-06-16T15:05:14.130Z,99997.06
2018-06-16T15:07:42.299Z,99992.52
2018-06-16T15:10:10.462Z,99997.99
2018-06-16T15:12:38.710Z,99996.38
2018-06-16T15:15:06.874Z,99997.99
2018-06-16T15:17:35.055Z,99996.80
2018-06-16T15:20:03.250Z,99983.11
2018-06-16T15:22:31.418Z,99989.55
2018-06-16T15:24:59.600Z,99993.94
2018-06-16T15:27:27.818Z,99988.99
2018-06-16T15:29:55.971Z,99992.19
2018-06-16T15:32:24.146Z,99992.73
2018-06-16T15:34:52.310Z,99988.16
2018-06-16T15:37:20.484Z,99982.33
2018-06-16T15:39:48.655Z,99980.13
2018-06-16T15:42:16.863Z,99981.97
2018-06-16T15:44:45.036Z,99979.36
2018-06-16T15:47:13.210Z,99973.09
2018-06-16T15:49:41.370Z,99975.36
2018-06-16T15:52:09.518Z,99987.94
2018-06-16T15:54:37.674Z,99981.69
2018-06-16T15:57:05.834Z,99978.80
2018-06-16T15:59:33.982Z,99977.33
2018-06-16T16:02:02.162Z,99973.13
2018-06-16T16:04:30.396Z,99977.81
2018-06-16T16:06:58.687Z,99975.53
2018-06-16T16:09:26.854Z,99976.94
2018-06-16T16:11:55.015Z,99974.80
2018-06-16T16:14:23.432Z,99971.02
2018-06-16T16:16:51.602Z,99975.61
2018-06-16T16:19:19.774Z,99992.53
2018-06-16T16:21:48.125Z,100008.43
2018-06-16T16:24:16.350Z,100013.53
2018-06-16T16:26:44.554Z,100022.30
2018-06-16T16:29:12.752Z,100018.77
2018-06-16T16:31:41.210Z,100037.05
2018-06-16T16:34:09.369Z,100036.84
2018-06-16T16:36:37.542Z,100032.53
2018-06-16T16:39:08.110Z,100028.52
2018-06-16T16:41:36.486Z,100023.69
2018-06-16T16:44:04.695Z,100019.58
2018-06-16T16:46:33.043Z,100018.09
2018-06-16T16:49:01.220Z,100011.22
2018-06-16T16:51:29.406Z,100009.93
2018-06-16T16:53:57.600Z,100006.24
2018-06-16T16:56:25.812Z,100009.00
2018-06-16T16:58:54.301Z,100008.52
2018-06-16T17:01:22.464Z,100012.80
2018-06-16T17:03:50.633Z,100012.18
2018-06-16T17:06:19.034Z,100012.38
2018-06-16T17:08:47.249Z,100008.05
2018-06-16T17:11:15.602Z,100011.54
2018-06-16T17:13:43.793Z,100017.53
2018-06-16T17:16:12.063Z,100011.03
2018-06-16T17:18:40.254Z,100013.84
2018-06-16T17:21:08.451Z,100012.02
2018-06-16T17:23:36.799Z,100005.50
2018-06-16T17:26:05.014Z,100012.37
2018-06-16T17:28:33.165Z,100010.66
2018-06-16T17:31:01.323Z,100009.52
2018-06-16T17:33:29.487Z,100008.17
2018-06-16T17:35:57.666Z,100011.39
2018-06-16T17:38:25.847Z,100007.59
2018-06-16T17:40:54.019Z,99999.52
2018-06-16T17:43:23.147Z,100000.88
2018-06-16T17:45:51.279Z,100000.04
2018-06-16T17:48:19.473Z,99996.75
2018-06-16T17:50:47.666Z,99997.27
2018-06-16T17:53:15.833Z,99991.01
2018-06-16T17:55:43.983Z,100001.59
2018-06-16T17:58:12.323Z,100002.48
2018-06-16T18:00:40.483Z,100010.56
2018-06-16T18:03:08.678Z,100012.80
2018-06-16T18:05:36.875Z,100018.38
2018-06-16T18:08:05.043Z,100025.56
2018-06-16T18:10:33.240Z,100027.16
2018-06-16T18:13:01.615Z,100032.27
2018-06-16T18:15:29.782Z,100043.64
2018-06-16T18:17:58.000Z,100059.12
2018-06-16T18:20:26.151Z,100066.27
2018-06-16T18:22:54.334Z,100078.51
2018-06-16T18:25:22.551Z,100080.45
2018-06-16T18:27:50.655Z,100082.67
2018-06-16T18:30:18.869Z,100083.02
2018-06-16T18:32:47.102Z,100089.27
2018-06-16T18:35:15.386Z,100088.80
2018-06-16T18:37:43.642Z,100087.72
2018-06-16T18:40:11.805Z,100078.83
2018-06-16T18:42:39.977Z,100069.38
2018-06-16T18:45:08.257Z,100071.29
2018-06-16T18:47:36.610Z,100072.66
2018-06-16T18:50:05.058Z,100072.95
2018-06-16T18:52:33.402Z,100075.13
2018-06-16T18:55:01.574Z,100078.39
2018-06-16T18:57:29.746Z,100077.31
2018-06-16T18:59:57.918Z,100079.17
2018-06-16T19:02:26.094Z,100079.97
2018-06-16T19:04:54.346Z,100079.17
2018-06-16T19:07:22.547Z,100082.16
2018-06-16T19:09:51.003Z,100076.22
2018-06-16T19:12:19.686Z,100084.60
2018-06-16T19:14:47.994Z,100081.34
2018-06-16T19:17:16.235Z,100081.07
2018-06-16T19:19:44.542Z,100091.36
2018-06-16T19:22:12.711Z,100090.01
2018-06-16T19:24:41.331Z,100094.63
2018-06-16T19:27:09.539Z,100093.30
2018-06-16T19:29:37.794Z,100095.72
2018-06-16T19:32:06.007Z,100095.45
2018-06-16T19:34:34.182Z,100096.55
2018-06-16T19:37:02.506Z,100098.17
2018-06-16T19:39:30.706Z,100097.34
2018-06-16T19:41:58.906Z,100102.48
2018-06-16T19:44:27.086Z,100098.98
2018-06-16T19:46:56.218Z,100108.44
2018-06-16T19:49:24.447Z,100112.77
2018-06-16T19:51:52.655Z,100114.92
2018-06-16T19:54:21.034Z,100122.77
2018-06-16T19:56:49.384Z,100118.98
2018-06-16T19:59:17.549Z,100127.07
2018-06-16T20:01:45.711Z,100129.50
2018-06-16T20:04:13.900Z,100133.84
2018-06-16T20:06:42.089Z,100141.97
2018-06-16T20:09:10.227Z,100145.75
2018-06-16T20:11:38.394Z,100143.85
2018-06-16T20:14:06.574Z,100151.16
2018-06-16T20:16:34.742Z,100151.69
2018-06-16T20:19:02.919Z,100158.45
2018-06-16T20:21:31.094Z,100163.05
2018-06-16T20:23:59.286Z,100160.34
2018-06-16T20:26:27.454Z,100159.27
2018-06-16T20:28:55.618Z,100157.11
2018-06-16T20:31:23.782Z,100164.14
2018-06-16T20:33:52.139Z,100161.68
2018-06-16T20:36:20.306Z,100158.70
2018-06-16T20:38:48.478Z,100163.31
2018-06-16T20:41:16.651Z,100159.78
2018-06-16T20:43:44.812Z,100160.31
2018-06-16T20:46:12.990Z,100157.30
2018-06-16T20:48:41.148Z,100154.33
2018-06-16T20:51:09.310Z,100158.09
2018-06-16T20:53:37.509Z,100154.56
2018-06-16T20:56:05.935Z,100160.25
2018-06-16T20:58:34.103Z,100169.69
2018-06-16T21:01:02.262Z,100168.86
2018-06-16T21:03:30.422Z,100169.71
2018-06-16T21:05:58.594Z,100168.61
2018-06-16T21:08:26.762Z,100168.36
2018-06-16T21:10:54.918Z,100172.39
2018-06-16T21:13:23.091Z,100176.18
2018-06-16T21:15:51.246Z,100182.95
2018-06-16T21:18:19.418Z,100179.16
2018-06-16T21:20:47.575Z,100178.36
2018-06-16T21:23:15.740Z,100177.82
2018-06-16T21:25:43.937Z,100179.68
2018-06-16T21:28:12.106Z,100175.84
2018-06-16T21:30:41.262Z,100176.09
2018-06-16T21:33:09.450Z,100173.14
2018-06-16T21:35:37.726Z,100177.67
2018-06-16T21:38:05.914Z,100179.28
2018-06-16T21:40:34.077Z,100176.86
2018-06-16T21:43:02.240Z,100177.35
2018-06-16T21:45:30.394Z,100177.06
2018-06-16T21:47:58.558Z,100179.70
2018-06-16T21:50:26.731Z,100179.61
2018-06-16T21:52:54.901Z,100181.44
2018-06-16T21:55:23.071Z,100183.79
2018-06-16T21:57:51.236Z,100177.27
2018-06-16T22:00:19.410Z,100172.34
2018-06-16T22:02:47.568Z,100183.59
2018-06-16T22:05:15.759Z,100182.73
2018-06-16T22:07:43.926Z,100181.84
2018-06-16T22:10:12.154Z,100182.05
2018-06-16T22:12:40.321Z,100188.17
2018-06-16T22:15:08.506Z,100178.16
2018-06-16T22:17:36.674Z,100182.13
2018-06-16T22:20:05.221Z,100179.08
2018-06-16T22:22:33.586Z,100185.26
2018-06-16T22:25:01.766Z,100182.48
2018-06-16T22:27:29.938Z,100174.92
2018-06-16T22:29:58.106Z,100182.09
2018-06-16T22:32:26.282Z,100183.40
2018-06-16T22:34:54.454Z,100181.70
2018-06-16T22:37:22.618Z,100186.53
2018-06-16T22:39:50.802Z,100185.10
2018-06-16T22:42:18.972Z,100191.78
2018-06-16T22:44:47.148Z,100176.66
2018-06-16T22:47:15.374Z,100175.77
2018-06-16T22:49:43.554Z,100170.30
2018-06-16T22:52:11.743Z,100175.91
2018-06-16T22:54:39.912Z,100176.70
2018-06-16T22:57:08.088Z,100178.23
2018-06-16T22:59:36.282Z,100184.41
2018-06-16T23:02:04.483Z,100185.19
2018-06-16T23:04:32.663Z,100183.02
2018-06-16T23:07:00.826Z,100181.43
2018-06-16T23:09:29.014Z,100183.56
2018-06-16T23:11:57.181Z,100186.20
2018-06-16T23:14:25.343Z,100183.46
2018-06-16T23:16:53.512Z,100185.09
2018-06-16T23:19:21.730Z,100187.41
2018-06-16T23:21:49.887Z,100189.02
2018-06-16T23:24:18.062Z,100189.54
2018-06-16T23:26:46.223Z,100189.81
2018-06-16T23:29:14.395Z,100187.73
2018-06-16T23:31:42.631Z,100194.52
2018-06-16T23:34:10.806Z,100191.65
2018-06-16T23:36:38.966Z,100200.09
2018-06-16T23:39:09.447Z,100204.69
2018-06-16T23:41:37.618Z,100200.42
2018-06-16T23:44:06.042Z,100197.17
2018-06-16T23:46:34.341Z,100198.94
2018-06-16T23:49:02.514Z,100202.96
2018-06-16T23:51:30.693Z,100201.75
2018-06-16T23:53:58.850Z,100203.81
2018-06-16T23:56:27.147Z,100210.44
2018-06-16T23:58:55.307Z,100212.19
